Time;durP1;ratioP1;P1;durP2;ratioP2;P2;SDS_P1;SDS_P2;PMS_P1;PMS_P2;Temp;Humidity;BMP_temperature;BMP_pressure;BME280_temperature;BME280_humidity;BME280_pressure;Samples;Min_cycle;Max_cycle;Signal;HPM_P1;HPM_P2
2022/06/15 00:01:58;;;;;;;;;;;;;;;;;;4964116;28;20381;-87
2022/06/15 00:04:24;;;;;;;;;;;;;;;;;;4967281;28;19925;-87
2022/06/15 00:06:50;;;;;;;;;;;;;;;;;;4985431;28;19936;-87
2022/06/15 00:09:16;;;;;;;;;;;;;;;;;;4967562;28;19925;-87
2022/06/15 00:11:42;;;;;;;;;;;;;;;;;;4967127;28;19963;-87
2022/06/15 00:14:07;;;;;;;;;;;;;;;;;;4965229;28;19996;-87
2022/06/15 00:16:33;;;;;;;;;;;;;;;;;;4969163;28;19940;-87
2022/06/15 00:18:59;;;;;;;;;;;;;;;;;;4969540;28;19910;-87
2022/06/15 00:21:25;;;;;;;;;;;;;;;;;;4977433;28;19924;-87
2022/06/15 00:23:51;;;;;;;;;;;;;;;;;;4966440;28;19914;-86
2022/06/15 00:26:17;;;;;;;;;;;;;;;;;;4966317;28;19921;-87
2022/06/15 00:28:43;;;;;;;;;;;;;;;;;;4965528;28;19924;-88
2022/06/15 00:31:09;;;;;;;;;;;;;;;;;;4968570;28;20031;-87
2022/06/15 00:33:35;;;;;;;;;;;;;;;;;;4967465;28;19985;-87
2022/06/15 00:36:01;;;;;;;;;;;;;;;;;;4978024;28;19916;-86
2022/06/15 00:38:27;;;;;;;;;;;;;;;;;;4977048;28;19913;-87
2022/06/15 00:40:53;;;;;;;;;;;;;;;;;;4978101;28;19916;-87
2022/06/15 00:43:21;;;;;;;;;;;;;;;;;;4969319;28;20582;-85
2022/06/15 00:45:47;;;;;;;;;;;;;;;;;;4968255;28;20385;-87
2022/06/15 00:48:13;;;;;;;;;;;;;;;;;;4967529;28;19914;-87
2022/06/15 00:50:38;;;;;;;;;;;;;;;;;;4983380;28;19917;-87
2022/06/15 00:53:05;;;;;;;;;;;;;;;;;;4968595;28;19933;-87
2022/06/15 00:55:31;;;;;;;;;;;;;;;;;;4969271;28;20376;-87
2022/06/15 00:57:57;;;;;;;;;;;;;;;;;;4970890;28;19914;-87
2022/06/15 01:00:23;;;;;;;;;;;;;;;;;;4969530;28;19921;-87
2022/06/15 01:02:49;;;;;;;;;;;;;;;;;;4988960;28;19920;-86
2022/06/15 01:05:15;;;;;;;;;;;;;;;;;;4971853;28;19964;-88
2022/06/15 01:07:41;;;;;;;;;;;;;;;;;;4968497;28;19968;-87
2022/06/15 01:10:07;;;;;;;;;;;;;;;;;;4971281;28;19922;-87
2022/06/15 01:12:33;;;;;;;;;;;;;;;;;;4969235;28;20008;-87
2022/06/15 01:14:59;;;;;;;;;;;;;;;;;;4966474;28;20277;-88
2022/06/15 01:17:25;;;;;;;;;;;;;;;;;;4969853;28;19933;-87
2022/06/15 01:19:51;;;;;;;;;;;;;;;;;;4969030;28;20427;-86
2022/06/15 01:22:17;;;;;;;;;;;;;;;;;;4968000;28;19910;-87
2022/06/15 01:24:43;;;;;;;;;;;;;;;;;;4971817;28;19940;-87
2022/06/15 01:27:09;;;;;;;;;;;;;;;;;;4967761;28;19949;-87
2022/06/15 01:29:35;;;;;;;;;;;;;;;;;;4967538;28;19913;-87
2022/06/15 01:32:01;;;;;;;;;;;;;;;;;;4970687;28;20000;-87
2022/06/15 01:34:27;;;;;;;;;;;;;;;;;;4983824;28;20387;-87
2022/06/15 01:36:52;;;;;;;;;;;;;;;;;;4964596;28;19914;-87
2022/06/15 01:39:18;;;;;;;;;;;;;;;;;;4983337;28;19949;-87
2022/06/15 01:41:45;;;;;;;;;;;;;;;;;;4969434;28;19939;-87
2022/06/15 01:44:12;;;;;;;;;;;;;;;;;;4985004;28;19926;-87
2022/06/15 01:46:39;;;;;;;;;;;;;;;;;;4965028;28;20403;-88
2022/06/15 01:49:05;;;;;;;;;;;;;;;;;;4968505;28;19914;-88
2022/06/15 01:51:31;;;;;;;;;;;;;;;;;;4968764;28;20142;-87
2022/06/15 01:53:56;;;;;;;;;;;;;;;;;;4967298;28;20013;-87
2022/06/15 01:56:22;;;;;;;;;;;;;;;;;;4977805;28;19933;-87
2022/06/15 01:58:48;;;;;;;;;;;;;;;;;;4989519;28;22695;-87
2022/06/15 02:01:14;;;;;;;;;;;;;;;;;;4984773;28;19917;-87
2022/06/15 02:03:40;;;;;;;;;;;;;;;;;;4973647;28;19918;-87
2022/06/15 02:06:09;;;;;;;;;;;;;;;;;;4982810;28;19924;-87
2022/06/15 02:08:35;;;;;;;;;;;;;;;;;;4967314;28;19981;-87
2022/06/15 02:11:01;;;;;;;;;;;;;;;;;;4982259;28;19956;-87
2022/06/15 02:13:27;;;;;;;;;;;;;;;;;;4986175;28;19914;-87
2022/06/15 02:15:54;;;;;;;;;;;;;;;;;;4967985;28;19949;-87
2022/06/15 02:18:19;;;;;;;;;;;;;;;;;;4965870;28;19910;-87
2022/06/15 02:20:45;;;;;;;;;;;;;;;;;;4990437;28;20550;-87
2022/06/15 02:23:11;;;;;;;;;;;;;;;;;;4980723;28;19910;-87
2022/06/15 02:25:37;;;;;;;;;;;;;;;;;;4967395;28;20476;-87
2022/06/15 02:28:03;;;;;;;;;;;;;;;;;;4980866;28;19909;-87
2022/06/15 02:30:29;;;;;;;;;;;;;;;;;;4971713;28;20001;-87
2022/06/15 02:32:55;;;;;;;;;;;;;;;;;;4970640;28;19914;-87
2022/06/15 02:35:21;;;;;;;;;;;;;;;;;;4980416;28;19917;-86
2022/06/15 02:37:47;;;;;;;;;;;;;;;;;;4968756;28;19910;-87
2022/06/15 02:40:13;;;;;;;;;;;;;;;;;;4981396;28;20024;-87
2022/06/15 02:42:40;;;;;;;;;;;;;;;;;;4965673;28;19985;-87
2022/06/15 02:45:06;;;;;;;;;;;;;;;;;;4979159;28;20000;-88
2022/06/15 02:47:32;;;;;;;;;;;;;;;;;;4982902;28;20009;-87
2022/06/15 02:49:58;;;;;;;;;;;;;;;;;;4977564;28;20451;-88
2022/06/15 02:52:24;;;;;;;;;;;;;;;;;;4982657;28;19917;-86
2022/06/15 02:54:50;;;;;;;;;;;;;;;;;;4971557;28;19953;-87
2022/06/15 02:57:16;;;;;;;;;;;;;;;;;;4962705;28;19909;-87
2022/06/15 02:59:44;;;;;;;;;;;;;;;;;;4974543;28;20276;-86
2022/06/15 03:02:12;;;;;;;;;;;;;;;;;;4969619;28;19920;-87
2022/06/15 03:04:38;;;;;;;;;;;;;;;;;;4979431;28;19917;-87
2022/06/15 03:07:04;;;;;;;;;;;;;;;;;;4979469;28;19979;-87
2022/06/15 03:09:30;;;;;;;;;;;;;;;;;;4984680;28;20373;-87
2022/06/15 03:12:02;;;;;;;;;;;;;;;;;;4969060;28;19952;-87
2022/06/15 03:14:28;;;;;;;;;;;;;;;;;;4964624;28;19928;-87
2022/06/15 03:16:54;;;;;;;;;;;;;;;;;;4965957;28;19913;-87
2022/06/15 03:19:20;;;;;;;;;;;;;;;;;;4958309;28;20008;-87
2022/06/15 03:21:46;;;;;;;;;;;;;;;;;;4959515;28;20352;-86
2022/06/15 03:24:12;;;;;;;;;;;;;;;;;;4965731;28;19909;-87
2022/06/15 03:26:38;;;;;;;;;;;;;;;;;;4973571;28;19956;-87
2022/06/15 03:29:05;;;;;;;;;;;;;;;;;;4971421;28;20289;-87
2022/06/15 03:31:30;;;;;;;;;;;;;;;;;;4988848;28;20365;-87
2022/06/15 03:33:56;;;;;;;;;;;;;;;;;;4969174;28;19914;-87
2022/06/15 03:36:22;;;;;;;;;;;;;;;;;;4967022;28;20176;-87
2022/06/15 03:38:48;;;;;;;;;;;;;;;;;;4967862;28;20005;-87
2022/06/15 03:41:14;;;;;;;;;;;;;;;;;;4985618;28;20083;-87
2022/06/15 03:43:40;;;;;;;;;;;;;;;;;;4983306;28;19936;-87
2022/06/15 03:46:06;;;;;;;;;;;;;;;;;;4976929;28;19967;-87
2022/06/15 03:48:32;;;;;;;;;;;;;;;;;;4968691;28;20270;-87
2022/06/15 03:50:58;;;;;;;;;;;;;;;;;;4978663;28;19979;-87
2022/06/15 03:53:24;;;;;;;;;;;;;;;;;;4968644;28;19956;-87
2022/06/15 03:55:50;;;;;;;;;;;;;;;;;;4968058;28;19914;-87
2022/06/15 03:58:16;;;;;;;;;;;;;;;;;;4968982;28;19918;-87
2022/06/15 04:00:42;;;;;;;;;;;;;;;;;;4972384;28;19921;-87
2022/06/15 04:03:08;;;;;;;;;;;;;;;;;;4964685;28;19944;-87
2022/06/15 04:05:34;;;;;;;;;;;;;;;;;;4970736;28;19918;-88
2022/06/15 04:10:44;;;;;;;;;;;;;;;;;;4986090;28;20266;-88
2022/06/15 04:13:10;;;;;;;;;;;;;;;;;;4968676;28;19909;-87
2022/06/15 04:15:36;;;;;;;;;;;;;;;;;;4977126;28;19913;-88
2022/06/15 04:18:02;;;;;;;;;;;;;;;;;;4978951;28;20471;-88
2022/06/15 04:20:40;;;;;;;;;;;;;;;;;;4974122;28;19910;-87
2022/06/15 04:23:06;;;;;;;;;;;;;;;;;;4963565;28;19917;-87
2022/06/15 04:25:32;;;;;;;;;;;;;;;;;;4969204;28;19917;-87
2022/06/15 04:27:57;;;;;;;;;;;;;;;;;;4963478;28;20393;-88
2022/06/15 04:30:23;;;;;;;;;;;;;;;;;;4968936;28;19916;-88
2022/06/15 04:32:49;;;;;;;;;;;;;;;;;;4965875;28;19921;-87
2022/06/15 04:35:15;;;;;;;;;;;;;;;;;;4968893;28;19953;-88
2022/06/15 04:37:41;;;;;;;;;;;;;;;;;;4966653;28;20598;-88
2022/06/15 04:40:07;;;;;;;;;;;;;;;;;;4974782;28;20250;-88
2022/06/15 04:42:33;;;;;;;;;;;;;;;;;;4967886;28;20342;-88
2022/06/15 04:44:59;;;;;;;;;;;;;;;;;;4982493;28;19917;-88
2022/06/15 04:47:25;;;;;;;;;;;;;;;;;;4971098;28;21084;-88
2022/06/15 04:49:51;;;;;;;;;;;;;;;;;;4982876;28;19983;-87
2022/06/15 04:52:17;;;;;;;;;;;;;;;;;;4966494;28;19910;-88
2022/06/15 04:54:43;;;;;;;;;;;;;;;;;;4980795;28;19913;-88
2022/06/15 04:57:09;;;;;;;;;;;;;;;;;;4966234;28;19909;-88
2022/06/15 04:59:35;;;;;;;;;;;;;;;;;;4969034;28;19921;-88
2022/06/15 05:02:01;;;;;;;;;;;;;;;;;;4978407;28;19910;-87
2022/06/15 05:04:27;;;;;;;;;;;;;;;;;;4972397;28;20166;-88
2022/06/15 05:06:53;;;;;;;;;;;;;;;;;;4959524;28;20218;-88
2022/06/15 05:09:19;;;;;;;;;;;;;;;;;;4964514;28;20243;-87
2022/06/15 05:11:45;;;;;;;;;;;;;;;;;;4984861;28;19924;-87
2022/06/15 05:14:11;;;;;;;;;;;;;;;;;;4967794;28;19917;-87
2022/06/15 05:16:36;;;;;;;;;;;;;;;;;;4966352;28;19917;-87
2022/06/15 05:19:03;;;;;;;;;;;;;;;;;;4963150;28;19914;-88
2022/06/15 05:21:28;;;;;;;;;;;;;;;;;;4984875;28;19910;-89
2022/06/15 05:23:54;;;;;;;;;;;;;;;;;;4965759;28;19925;-88
2022/06/15 05:26:24;;;;;;;;;;;;;;;;;;4972423;28;19906;-88
2022/06/15 05:28:50;;;;;;;;;;;;;;;;;;4973515;28;19920;-87
2022/06/15 05:31:20;;;;;;;;;;;;;;;;;;4967598;28;19910;-88
2022/06/15 05:33:46;;;;;;;;;;;;;;;;;;4984152;28;19918;-89
2022/06/15 05:36:12;;;;;;;;;;;;;;;;;;4971980;28;21205;-88
2022/06/15 05:38:38;;;;;;;;;;;;;;;;;;4973441;28;19929;-89
2022/06/15 05:41:04;;;;;;;;;;;;;;;;;;4973939;28;19911;-88
2022/06/15 05:43:31;;;;;;;;;;;;;;;;;;4972978;28;19913;-89
2022/06/15 05:46:00;;;;;;;;;;;;;;;;;;4985637;28;19916;-88
2022/06/15 05:48:26;;;;;;;;;;;;;;;;;;4972383;28;20361;-88
2022/06/15 05:50:52;;;;;;;;;;;;;;;;;;4962647;28;19928;-88
2022/06/15 05:53:21;;;;;;;;;;;;;;;;;;4970943;28;19913;-88
2022/06/15 05:55:47;;;;;;;;;;;;;;;;;;4967482;28;19979;-89
2022/06/15 05:58:13;;;;;;;;;;;;;;;;;;4967589;28;20291;-89
2022/06/15 06:00:39;;;;;;;;;;;;;;;;;;4967261;28;19914;-89
2022/06/15 06:03:05;;;;;;;;;;;;;;;;;;4986596;28;19967;-88
2022/06/15 06:05:31;;;;;;;;;;;;;;;;;;4964659;28;20324;-88
2022/06/15 06:07:57;;;;;;;;;;;;;;;;;;4983034;28;20362;-88
2022/06/15 06:10:22;;;;;;;;;;;;;;;;;;4967255;28;19964;-87
2022/06/15 06:12:49;;;;;;;;;;;;;;;;;;4965222;28;19917;-88
2022/06/15 06:15:15;;;;;;;;;;;;;;;;;;4970422;28;20008;-88
2022/06/15 06:17:41;;;;;;;;;;;;;;;;;;4970191;28;20417;-88
2022/06/15 06:20:07;;;;;;;;;;;;;;;;;;4966845;28;20365;-88
2022/06/15 06:22:33;;;;;;;;;;;;;;;;;;4961123;28;19917;-89
2022/06/15 06:24:59;;;;;;;;;;;;;;;;;;4971840;28;20285;-89
2022/06/15 06:27:25;;;;;;;;;;;;;;;;;;4969001;28;19983;-88
2022/06/15 06:29:51;;;;;;;;;;;;;;;;;;4971181;28;19910;-87
2022/06/15 06:32:17;;;;;;;;;;;;;;;;;;4969581;28;19925;-89
2022/06/15 06:34:43;;;;;;;;;;;;;;;;;;4970790;28;20366;-89
2022/06/15 06:37:09;;;;;;;;;;;;;;;;;;4972625;28;19917;-91
2022/06/15 06:39:35;;;;;;;;;;;;;;;;;;4971802;28;19918;-89
2022/06/15 06:42:01;;;;;;;;;;;;;;;;;;4967185;28;19920;-88
2022/06/15 06:44:28;;;;;;;;;;;;;;;;;;4978860;28;20424;-89
2022/06/15 06:46:54;;;;;;;;;;;;;;;;;;4982607;28;19920;-89
2022/06/15 06:49:20;;;;;;;;;;;;;;;;;;4962930;28;20004;-88
2022/06/15 06:51:46;;;;;;;;;;;;;;;;;;4963717;28;19996;-87
2022/06/15 06:54:12;;;;;;;;;;;;;;;;;;4967381;28;19921;-88
2022/06/15 06:56:38;;;;;;;;;;;;;;;;;;4966392;28;22796;-88
2022/06/15 06:59:08;;;;;;;;;;;;;;;;;;4969069;28;19984;-89
2022/06/15 07:01:37;;;;;;;;;;;;;;;;;;4985506;28;19913;-89
2022/06/15 07:04:03;;;;;;;;;;;;;;;;;;4971839;28;19972;-88
2022/06/15 07:06:29;;;;;;;;;;;;;;;;;;4967762;28;19996;-89
2022/06/15 07:08:58;;;;;;;;;;;;;;;;;;4966689;28;20408;-89
2022/06/15 07:11:24;;;;;;;;;;;;;;;;;;4968910;28;19972;-89
2022/06/15 07:13:50;;;;;;;;;;;;;;;;;;4979513;28;19925;-89
2022/06/15 07:16:19;;;;;;;;;;;;;;;;;;4964863;28;19917;-89
2022/06/15 07:18:46;;;;;;;;;;;;;;;;;;4981525;28;20032;-89
2022/06/15 07:21:12;;;;;;;;;;;;;;;;;;4963188;28;21178;-88
2022/06/15 07:23:38;;;;;;;;;;;;;;;;;;4985666;28;19914;-89
2022/06/15 07:26:04;;;;;;;;;;;;;;;;;;4985398;28;19914;-88
2022/06/15 07:28:30;;;;;;;;;;;;;;;;;;4979525;28;19960;-88
2022/06/15 07:30:56;;;;;;;;;;;;;;;;;;4963517;28;19913;-88
2022/06/15 07:33:22;;;;;;;;;;;;;;;;;;4970652;28;20304;-89
2022/06/15 07:35:48;;;;;;;;;;;;;;;;;;4970714;28;20316;-89
2022/06/15 07:38:13;;;;;;;;;;;;;;;;;;4969554;28;19918;-90
2022/06/15 07:40:39;;;;;;;;;;;;;;;;;;4970268;28;19977;-89
2022/06/15 07:43:12;;;;;;;;;;;;;;;;;;4970856;28;20388;-88
2022/06/15 07:45:38;;;;;;;;;;;;;;;;;;4965592;28;20000;-89
2022/06/15 07:50:48;;;;;;;;;;;;;;;;;;4983159;28;19926;-89
2022/06/15 07:53:14;;;;;;;;;;;;;;;;;;4962930;28;19918;-90
2022/06/15 07:55:40;;;;;;;;;;;;;;;;;;4965221;28;19957;-89
2022/06/15 07:58:07;;;;;;;;;;;;;;;;;;4963031;28;19906;-89
2022/06/15 08:00:33;;;;;;;;;;;;;;;;;;4967222;28;19917;-90
2022/06/15 08:02:59;;;;;;;;;;;;;;;;;;4963030;28;19918;-89
2022/06/15 08:05:25;;;;;;;;;;;;;;;;;;4969183;28;20024;-89
2022/06/15 08:07:51;;;;;;;;;;;;;;;;;;4967310;28;20000;-89
2022/06/15 08:10:23;;;;;;;;;;;;;;;;;;4967609;28;19932;-89
2022/06/15 08:12:49;;;;;;;;;;;;;;;;;;4969921;28;19997;-89
2022/06/15 08:15:14;;;;;;;;;;;;;;;;;;4963791;28;20024;-89
2022/06/15 08:17:40;;;;;;;;;;;;;;;;;;4963776;28;20480;-89
2022/06/15 08:20:07;;;;;;;;;;;;;;;;;;4968785;28;19910;-90
2022/06/15 08:22:34;;;;;;;;;;;;;;;;;;4970413;28;19937;-88
2022/06/15 08:25:00;;;;;;;;;;;;;;;;;;4965734;28;19910;-89
2022/06/15 08:27:26;;;;;;;;;;;;;;;;;;4963811;28;20685;-89
2022/06/15 08:29:52;;;;;;;;;;;;;;;;;;4979958;28;19914;-89
2022/06/15 08:32:18;;;;;;;;;;;;;;;;;;4967346;28;19914;-88
2022/06/15 08:34:44;;;;;;;;;;;;;;;;;;4967254;28;19924;-91
2022/06/15 08:37:10;;;;;;;;;;;;;;;;;;4970929;28;19913;-89
2022/06/15 08:39:36;;;;;;;;;;;;;;;;;;4983202;28;19921;-90
2022/06/15 08:42:02;;;;;;;;;;;;;;;;;;4980644;28;20293;-90
2022/06/15 08:44:29;;;;;;;;;;;;;;;;;;4964582;28;19914;-90
2022/06/15 08:46:55;;;;;;;;;;;;;;;;;;4963830;28;19918;-90
2022/06/15 08:49:21;;;;;;;;;;;;;;;;;;4982671;28;19918;-89
2022/06/15 08:51:47;;;;;;;;;;;;;;;;;;4965490;28;20340;-90
2022/06/15 08:54:17;;;;;;;;;;;;;;;;;;4966509;28;19956;-91
2022/06/15 08:56:44;;;;;;;;;;;;;;;;;;4966870;28;20412;-90
2022/06/15 08:59:10;;;;;;;;;;;;;;;;;;4967787;28;19981;-88
2022/06/15 09:01:36;;;;;;;;;;;;;;;;;;4983520;28;20008;-88
2022/06/15 09:04:02;;;;;;;;;;;;;;;;;;4982363;28;20366;-90
2022/06/15 09:06:28;;;;;;;;;;;;;;;;;;4968193;28;19963;-88
2022/06/15 09:08:53;;;;;;;;;;;;;;;;;;4980018;28;19914;-88
2022/06/15 09:11:19;;;;;;;;;;;;;;;;;;4990038;28;19924;-89
2022/06/15 09:13:45;;;;;;;;;;;;;;;;;;4970247;28;20005;-89
2022/06/15 09:16:11;;;;;;;;;;;;;;;;;;4970385;28;19918;-88
2022/06/15 09:18:37;;;;;;;;;;;;;;;;;;4987942;28;19913;-89
2022/06/15 09:21:04;;;;;;;;;;;;;;;;;;4971995;28;19910;-89
2022/06/15 09:23:30;;;;;;;;;;;;;;;;;;4966257;28;20288;-89
2022/06/15 09:25:56;;;;;;;;;;;;;;;;;;4968273;28;19918;-89
2022/06/15 09:28:25;;;;;;;;;;;;;;;;;;4968017;28;19921;-88
2022/06/15 09:30:52;;;;;;;;;;;;;;;;;;4979573;28;19925;-89
2022/06/15 09:33:18;;;;;;;;;;;;;;;;;;4973633;28;20457;-89
2022/06/15 09:35:44;;;;;;;;;;;;;;;;;;4971077;28;19913;-88
2022/06/15 09:38:10;;;;;;;;;;;;;;;;;;4970298;28;19957;-89
2022/06/15 09:40:36;;;;;;;;;;;;;;;;;;4983087;28;19918;-90
2022/06/15 09:43:02;;;;;;;;;;;;;;;;;;4956766;28;20404;-90
2022/06/15 09:45:28;;;;;;;;;;;;;;;;;;4959139;28;20004;-89
2022/06/15 09:47:54;;;;;;;;;;;;;;;;;;4986555;28;20274;-88
2022/06/15 09:50:20;;;;;;;;;;;;;;;;;;4966661;28;19917;-90
2022/06/15 09:52:46;;;;;;;;;;;;;;;;;;4967323;28;19929;-89
2022/06/15 09:55:13;;;;;;;;;;;;;;;;;;4968825;28;19921;-89
2022/06/15 09:57:39;;;;;;;;;;;;;;;;;;4967445;28;20010;-89
2022/06/15 10:00:05;;;;;;;;;;;;;;;;;;4968137;28;19925;-89
2022/06/15 10:02:31;;;;;;;;;;;;;;;;;;4965946;28;19914;-89
2022/06/15 10:04:57;;;;;;;;;;;;;;;;;;4973956;28;19913;-89
2022/06/15 10:07:25;;;;;;;;;;;;;;;;;;4972415;28;19906;-89
2022/06/15 10:09:51;;;;;;;;;;;;;;;;;;4961915;28;19957;-88
2022/06/15 10:15:02;;;;;;;;;;;;;;;;;;4982707;28;20465;-89
2022/06/15 10:17:30;;;;;;;;;;;;;;;;;;4970471;28;19918;-89
2022/06/15 10:19:56;;;;;;;;;;;;;;;;;;4976132;28;20251;-89
2022/06/15 10:22:22;;;;;;;;;;;;;;;;;;4969392;28;19929;-88
2022/06/15 10:24:48;;;;;;;;;;;;;;;;;;4963424;28;19910;-89
2022/06/15 10:27:14;;;;;;;;;;;;;;;;;;4968134;28;19917;-88
2022/06/15 10:29:40;;;;;;;;;;;;;;;;;;4966068;28;20404;-88
2022/06/15 10:32:07;;;;;;;;;;;;;;;;;;4965398;28;20189;-89
2022/06/15 10:34:33;;;;;;;;;;;;;;;;;;4967765;28;19914;-88
2022/06/15 10:36:59;;;;;;;;;;;;;;;;;;4980429;28;19914;-88
2022/06/15 10:39:32;;;;;;;;;;;;;;;;;;4973692;28;19968;-88
2022/06/15 10:41:58;;;;;;;;;;;;;;;;;;4984948;28;20015;-89
2022/06/15 10:44:24;;;;;;;;;;;;;;;;;;4961073;28;19924;-89
2022/06/15 10:46:50;;;;;;;;;;;;;;;;;;4975068;28;19913;-89
2022/06/15 10:49:16;;;;;;;;;;;;;;;;;;4972660;28;20830;-90
2022/06/15 10:51:42;;;;;;;;;;;;;;;;;;4979319;28;19913;-89
2022/06/15 10:54:08;;;;;;;;;;;;;;;;;;4973856;28;19910;-89
2022/06/15 11:02:06;;;;;;;;;;;;;;;;;;4982486;28;19939;-93
2022/06/15 11:04:32;;;;;;;;;;;;;;;;;;4974802;28;19914;-94
2022/06/15 11:06:58;;;;;;;;;;;;;;;;;;4969034;28;19910;-92
2022/06/15 11:09:24;;;;;;;;;;;;;;;;;;4980047;28;19988;-93
2022/06/15 11:11:50;;;;;;;;;;;;;;;;;;4988201;28;19929;-95
2022/06/15 11:14:16;;;;;;;;;;;;;;;;;;4970177;28;20205;-95
2022/06/15 11:19:27;;;;;;;;;;;;;;;;;;4987253;28;19921;-91
2022/06/15 11:21:53;;;;;;;;;;;;;;;;;;4969135;28;19962;-91
2022/06/15 11:24:19;;;;;;;;;;;;;;;;;;4965130;28;19918;-91
2022/06/15 11:26:57;;;;;;;;;;;;;;;;;;4988173;28;20000;-93
2022/06/15 11:29:23;;;;;;;;;;;;;;;;;;4987485;28;20281;-93
2022/06/15 11:31:49;;;;;;;;;;;;;;;;;;4965991;28;19910;-94
2022/06/15 11:34:15;;;;;;;;;;;;;;;;;;4971975;28;19913;-94
2022/06/15 11:36:41;;;;;;;;;;;;;;;;;;4972733;28;20280;-93
2022/06/15 11:39:07;;;;;;;;;;;;;;;;;;4975809;28;19913;-93
2022/06/15 11:41:33;;;;;;;;;;;;;;;;;;4970584;28;20413;-93
2022/06/15 11:43:59;;;;;;;;;;;;;;;;;;4969356;28;19999;-93
2022/06/15 11:46:30;;;;;;;;;;;;;;;;;;4988818;28;19909;-94
2022/06/15 11:48:56;;;;;;;;;;;;;;;;;;4977608;28;19914;-94
2022/06/15 11:51:22;;;;;;;;;;;;;;;;;;4969849;28;19920;-93
2022/06/15 11:53:48;;;;;;;;;;;;;;;;;;4979811;28;20329;-93
2022/06/15 11:56:15;;;;;;;;;;;;;;;;;;4975922;28;19964;-91
2022/06/15 11:58:41;;;;;;;;;;;;;;;;;;4970562;28;19916;-92
2022/06/15 12:01:07;;;;;;;;;;;;;;;;;;4968723;28;19917;-92
2022/06/15 12:03:33;;;;;;;;;;;;;;;;;;4967432;28;20297;-91
2022/06/15 12:05:59;;;;;;;;;;;;;;;;;;4979375;28;19960;-90
2022/06/15 12:08:25;;;;;;;;;;;;;;;;;;4979020;28;19968;-90
2022/06/15 12:10:51;;;;;;;;;;;;;;;;;;4983127;28;19925;-90
2022/06/15 12:13:17;;;;;;;;;;;;;;;;;;4967453;28;19914;-89
2022/06/15 12:15:45;;;;;;;;;;;;;;;;;;4964793;28;19914;-89
2022/06/15 12:18:11;;;;;;;;;;;;;;;;;;4969372;28;19957;-87
2022/06/15 12:20:37;;;;;;;;;;;;;;;;;;4969978;28;20003;-89
2022/06/15 12:23:03;;;;;;;;;;;;;;;;;;4969603;28;19910;-89
2022/06/15 12:25:29;;;;;;;;;;;;;;;;;;4968212;28;20377;-88
2022/06/15 12:27:55;;;;;;;;;;;;;;;;;;4984955;28;19916;-89
2022/06/15 12:30:21;;;;;;;;;;;;;;;;;;4970866;28;19916;-90
2022/06/15 12:32:47;;;;;;;;;;;;;;;;;;4969413;28;19940;-88
2022/06/15 12:35:13;;;;;;;;;;;;;;;;;;4964254;28;19965;-87
2022/06/15 12:37:39;;;;;;;;;;;;;;;;;;4965064;28;19933;-91
2022/06/15 12:40:05;;;;;;;;;;;;;;;;;;4979266;28;19910;-93
2022/06/15 12:42:37;;;;;;;;;;;;;;;;;;4967786;28;19910;-92
2022/06/15 12:45:03;;;;;;;;;;;;;;;;;;4962554;28;19925;-94
2022/06/15 12:47:29;;;;;;;;;;;;;;;;;;4970000;28;19914;-92
2022/06/15 12:49:55;;;;;;;;;;;;;;;;;;4969772;28;19913;-87
2022/06/15 12:52:21;;;;;;;;;;;;;;;;;;4972995;28;20052;-88
2022/06/15 12:54:47;;;;;;;;;;;;;;;;;;4970406;28;19913;-88
2022/06/15 12:57:13;;;;;;;;;;;;;;;;;;4971249;28;19913;-88
2022/06/15 12:59:39;;;;;;;;;;;;;;;;;;4967357;28;20035;-88
2022/06/15 13:02:05;;;;;;;;;;;;;;;;;;4969895;28;20272;-89
2022/06/15 13:04:31;;;;;;;;;;;;;;;;;;4971822;28;19910;-89
2022/06/15 13:06:57;;;;;;;;;;;;;;;;;;4982992;28;19912;-89
2022/06/15 13:09:24;;;;;;;;;;;;;;;;;;4970596;28;19916;-89
2022/06/15 13:11:51;;;;;;;;;;;;;;;;;;4974234;28;19941;-88
2022/06/15 13:14:17;;;;;;;;;;;;;;;;;;4973161;28;19969;-88
2022/06/15 13:16:43;;;;;;;;;;;;;;;;;;4978383;28;19957;-89
2022/06/15 13:19:08;;;;;;;;;;;;;;;;;;4979428;28;19989;-87
2022/06/15 13:21:34;;;;;;;;;;;;;;;;;;4984891;28;20356;-88
2022/06/15 13:24:00;;;;;;;;;;;;;;;;;;4980268;28;20004;-88
2022/06/15 13:26:26;;;;;;;;;;;;;;;;;;4968689;28;20381;-89
2022/06/15 13:28:52;;;;;;;;;;;;;;;;;;4973085;28;20019;-88
2022/06/15 13:31:18;;;;;;;;;;;;;;;;;;4975315;28;19918;-88
2022/06/15 13:33:44;;;;;;;;;;;;;;;;;;4981714;28;19913;-88
2022/06/15 13:36:10;;;;;;;;;;;;;;;;;;4976352;28;19913;-88
2022/06/15 13:38:36;;;;;;;;;;;;;;;;;;4976848;28;20077;-88
2022/06/15 13:41:02;;;;;;;;;;;;;;;;;;4975492;28;19948;-88
2022/06/15 13:43:28;;;;;;;;;;;;;;;;;;4979955;28;20654;-88
2022/06/15 13:45:54;;;;;;;;;;;;;;;;;;4968782;28;19916;-88
2022/06/15 13:48:20;;;;;;;;;;;;;;;;;;4971504;28;19906;-88
2022/06/15 13:50:46;;;;;;;;;;;;;;;;;;4967634;28;19925;-89
2022/06/15 13:53:12;;;;;;;;;;;;;;;;;;4969232;28;20309;-88
2022/06/15 13:55:38;;;;;;;;;;;;;;;;;;4985710;28;20444;-89
2022/06/15 13:58:04;;;;;;;;;;;;;;;;;;4969271;28;19910;-88
2022/06/15 14:00:30;;;;;;;;;;;;;;;;;;4968274;28;19909;-88
2022/06/15 14:02:56;;;;;;;;;;;;;;;;;;4962356;28;19995;-89
2022/06/15 14:05:23;;;;;;;;;;;;;;;;;;4978907;28;20011;-89
2022/06/15 14:07:49;;;;;;;;;;;;;;;;;;4977685;28;19920;-88
2022/06/15 14:10:15;;;;;;;;;;;;;;;;;;4982380;28;19909;-89
2022/06/15 14:12:41;;;;;;;;;;;;;;;;;;4969893;28;19932;-89
2022/06/15 14:15:07;;;;;;;;;;;;;;;;;;4972315;28;20418;-88
2022/06/15 14:17:33;;;;;;;;;;;;;;;;;;4966795;28;20128;-89
2022/06/15 14:19:59;;;;;;;;;;;;;;;;;;4981253;28;20001;-87
2022/06/15 14:22:25;;;;;;;;;;;;;;;;;;4976905;28;19914;-88
2022/06/15 14:24:51;;;;;;;;;;;;;;;;;;4980133;28;19918;-88
2022/06/15 14:27:17;;;;;;;;;;;;;;;;;;4982338;28;19917;-88
2022/06/15 14:29:43;;;;;;;;;;;;;;;;;;4969100;28;19913;-88
2022/06/15 14:32:09;;;;;;;;;;;;;;;;;;4977946;28;20000;-88
2022/06/15 14:34:35;;;;;;;;;;;;;;;;;;4971260;28;20492;-88
2022/06/15 14:37:01;;;;;;;;;;;;;;;;;;4979466;28;19920;-89
2022/06/15 14:39:27;;;;;;;;;;;;;;;;;;4979650;28;19910;-88
2022/06/15 14:41:53;;;;;;;;;;;;;;;;;;4964961;28;20353;-88
2022/06/15 14:44:19;;;;;;;;;;;;;;;;;;4976884;28;20363;-88
2022/06/15 14:46:50;;;;;;;;;;;;;;;;;;4963073;28;19925;-87
2022/06/15 14:49:16;;;;;;;;;;;;;;;;;;4967545;28;19925;-88
2022/06/15 14:51:42;;;;;;;;;;;;;;;;;;4968460;28;19914;-88
2022/06/15 14:54:09;;;;;;;;;;;;;;;;;;4964736;28;19944;-88
2022/06/15 14:56:35;;;;;;;;;;;;;;;;;;4967261;28;19914;-90
2022/06/15 14:59:01;;;;;;;;;;;;;;;;;;4969387;28;19909;-89
2022/06/15 15:01:27;;;;;;;;;;;;;;;;;;4978582;28;20382;-90
2022/06/15 15:03:53;;;;;;;;;;;;;;;;;;4970027;28;19953;-90
2022/06/15 15:06:19;;;;;;;;;;;;;;;;;;4967915;28;19991;-89
2022/06/15 15:08:45;;;;;;;;;;;;;;;;;;4963529;28;19914;-89
2022/06/15 15:11:11;;;;;;;;;;;;;;;;;;4962473;28;19924;-89
2022/06/15 15:13:38;;;;;;;;;;;;;;;;;;4969435;28;20489;-89
2022/06/15 15:16:04;;;;;;;;;;;;;;;;;;4975896;28;19964;-89
2022/06/15 15:18:30;;;;;;;;;;;;;;;;;;4972662;28;20353;-89
2022/06/15 15:20:56;;;;;;;;;;;;;;;;;;4973967;28;19921;-88
2022/06/15 15:23:22;;;;;;;;;;;;;;;;;;4974312;28;19932;-89
2022/06/15 15:25:50;;;;;;;;;;;;;;;;;;4975623;28;20227;-88
2022/06/15 15:39:16;;;;;;;;;;;;;;;;;;4986758;28;19968;-90
2022/06/15 15:41:42;;;;;;;;;;;;;;;;;;4983211;28;19968;-89
2022/06/15 15:44:08;;;;;;;;;;;;;;;;;;4979189;28;19972;-88
2022/06/15 15:46:34;;;;;;;;;;;;;;;;;;4980602;28;19980;-89
2022/06/15 15:49:00;;;;;;;;;;;;;;;;;;4974994;28;19921;-88
2022/06/15 15:51:26;;;;;;;;;;;;;;;;;;4983549;28;20579;-89
2022/06/15 15:53:52;;;;;;;;;;;;;;;;;;4969563;28;19920;-89
2022/06/15 15:56:18;;;;;;;;;;;;;;;;;;4971848;28;19964;-88
2022/06/15 15:58:46;;;;;;;;;;;;;;;;;;4983699;28;20316;-90
2022/06/15 16:01:12;;;;;;;;;;;;;;;;;;4972357;28;19917;-89
2022/06/15 16:03:38;;;;;;;;;;;;;;;;;;4968435;28;19914;-89
2022/06/15 16:06:04;;;;;;;;;;;;;;;;;;4971884;28;19955;-90
2022/06/15 16:08:30;;;;;;;;;;;;;;;;;;4976662;28;20043;-88
2022/06/15 16:10:56;;;;;;;;;;;;;;;;;;4977713;28;19987;-89
2022/06/15 16:13:22;;;;;;;;;;;;;;;;;;4970685;28;19909;-89
2022/06/15 16:15:48;;;;;;;;;;;;;;;;;;4968319;28;20004;-89
2022/06/15 16:18:15;;;;;;;;;;;;;;;;;;4971023;28;19914;-89
2022/06/15 16:20:42;;;;;;;;;;;;;;;;;;4968453;28;20062;-89
2022/06/15 16:23:08;;;;;;;;;;;;;;;;;;4981375;28;20290;-88
2022/06/15 16:25:34;;;;;;;;;;;;;;;;;;4970690;28;20250;-88
2022/06/15 16:28:01;;;;;;;;;;;;;;;;;;4977570;28;20016;-88
2022/06/15 16:30:29;;;;;;;;;;;;;;;;;;4972915;28;19910;-89
2022/06/15 16:32:54;;;;;;;;;;;;;;;;;;4985186;28;19921;-89
2022/06/15 16:35:20;;;;;;;;;;;;;;;;;;4972563;28;20377;-89
2022/06/15 16:37:46;;;;;;;;;;;;;;;;;;4973064;28;19914;-88
2022/06/15 16:40:12;;;;;;;;;;;;;;;;;;4989873;28;20260;-89
2022/06/15 16:42:38;;;;;;;;;;;;;;;;;;4969431;28;19921;-88
2022/06/15 16:45:04;;;;;;;;;;;;;;;;;;4973388;28;19913;-88
2022/06/15 16:47:30;;;;;;;;;;;;;;;;;;4969492;28;19976;-89
2022/06/15 16:49:56;;;;;;;;;;;;;;;;;;4964547;28;19917;-88
2022/06/15 16:52:22;;;;;;;;;;;;;;;;;;4968631;28;19948;-88
2022/06/15 16:54:48;;;;;;;;;;;;;;;;;;4979445;28;19920;-89
2022/06/15 16:57:13;;;;;;;;;;;;;;;;;;4975060;28;19917;-88
2022/06/15 16:59:39;;;;;;;;;;;;;;;;;;4981097;28;19913;-88
2022/06/15 17:02:05;;;;;;;;;;;;;;;;;;4968080;28;20385;-88
2022/06/15 17:04:31;;;;;;;;;;;;;;;;;;4976815;28;19914;-88
2022/06/15 17:06:57;;;;;;;;;;;;;;;;;;4977697;28;19917;-88